Time;durP1;ratioP1;P1;durP2;ratioP2;P2;SDS_P1;SDS_P2;PMS_P1;PMS_P2;Temp;Humidity;BMP_temperature;BMP_pressure;BME280_temperature;BME280_humidity;BME280_pressure;Samples;Min_cycle;Max_cycle;Signal;HPM_P1;HPM_P2
2021/08/06 00:02:08;;;;;;;17.70;16.50;;;18.30;99.90;;;;;;5060731;28;20470;-68
2021/08/06 00:04:36;;;;;;;17.20;16.20;;;18.20;99.90;;;;;;5056062;28;20544;-70
2021/08/06 00:07:04;;;;;;;18.13;16.83;;;18.20;99.90;;;;;;5056239;28;22804;-70
2021/08/06 00:09:35;;;;;;;16.47;15.30;;;18.30;99.90;;;;;;5054739;28;20477;-68
2021/08/06 00:12:02;;;;;;;17.17;16.27;;;18.30;99.90;;;;;;5058260;28;21134;-69
2021/08/06 00:14:30;;;;;;;17.10;16.10;;;18.30;99.90;;;;;;5056673;28;20463;-68
2021/08/06 00:16:58;;;;;;;16.93;15.90;;;18.30;99.90;;;;;;5056423;28;20494;-70
2021/08/06 00:19:27;;;;;;;17.47;16.47;;;18.30;99.90;;;;;;5057938;28;20458;-68
2021/08/06 00:21:54;;;;;;;18.57;17.47;;;18.30;99.90;;;;;;5052094;28;20454;-68
2021/08/06 00:24:21;;;;;;;17.07;16.00;;;18.40;99.90;;;;;;5053175;28;20860;-68
2021/08/06 00:26:48;;;;;;;18.07;16.60;;;18.40;99.90;;;;;;5052782;28;20464;-69
2021/08/06 00:29:16;;;;;;;17.47;16.57;;;18.40;99.90;;;;;;5054907;28;20497;-68
2021/08/06 00:31:42;;;;;;;18.17;17.07;;;18.50;99.90;;;;;;5058056;28;20512;-70
2021/08/06 00:34:09;;;;;;;16.73;15.73;;;18.50;99.90;;;;;;5059045;28;20466;-68
2021/08/06 00:36:37;;;;;;;18.00;16.70;;;18.40;99.90;;;;;;5060911;28;20701;-68
2021/08/06 00:39:04;;;;;;;17.53;16.53;;;18.40;99.90;;;;;;5057496;28;20940;-68
2021/08/06 00:41:32;;;;;;;19.03;17.07;;;18.50;99.90;;;;;;5058863;28;20462;-69
2021/08/06 00:43:59;;;;;;;16.97;16.07;;;18.40;99.90;;;;;;5052584;28;20490;-68
2021/08/06 00:46:26;;;;;;;17.53;16.53;;;18.50;99.90;;;;;;5063129;28;21134;-69
2021/08/06 00:48:56;;;;;;;17.13;16.20;;;18.40;99.90;;;;;;5061821;28;20488;-69
2021/08/06 00:51:23;;;;;;;21.97;17.10;;;18.40;99.90;;;;;;5059768;28;20451;-68
2021/08/06 00:53:53;;;;;;;17.40;16.20;;;18.40;99.90;;;;;;5056351;28;20451;-68
2021/08/06 00:56:21;;;;;;;18.50;17.00;;;18.40;99.90;;;;;;5060335;28;20473;-68
2021/08/06 00:58:48;;;;;;;18.23;17.23;;;18.40;99.90;;;;;;5059483;28;20447;-68
2021/08/06 01:01:15;;;;;;;16.63;15.73;;;18.40;99.90;;;;;;5056215;28;20454;-71
2021/08/06 01:03:52;;;;;;;17.70;16.70;;;18.50;99.90;;;;;;5060319;28;20460;-69
2021/08/06 01:06:24;;;;;;;18.30;16.90;;;18.40;99.90;;;;;;5063908;28;20457;-68
2021/08/06 01:09:02;;;;;;;16.80;15.90;;;18.50;99.90;;;;;;5058701;28;20486;-70
2021/08/06 01:11:37;;;;;;;17.97;16.57;;;18.50;99.90;;;;;;5061553;28;20815;-69
2021/08/06 01:14:07;;;;;;;17.67;16.47;;;18.50;99.90;;;;;;5057517;28;20469;-68
2021/08/06 01:16:36;;;;;;;17.13;16.03;;;18.50;99.90;;;;;;5059878;28;20478;-68
2021/08/06 01:19:13;;;;;;;16.77;15.77;;;18.50;99.90;;;;;;5052849;28;20528;-69
2021/08/06 01:21:46;;;;;;;17.70;16.60;;;18.60;99.90;;;;;;5059595;28;20450;-68
2021/08/06 01:24:18;;;;;;;19.03;17.00;;;18.60;99.90;;;;;;5059532;28;20454;-68
2021/08/06 01:26:48;;;;;;;17.37;16.37;;;18.50;99.90;;;;;;5058139;28;20457;-69
2021/08/06 01:29:15;;;;;;;17.10;16.00;;;18.50;99.90;;;;;;5054591;28;20487;-68
2021/08/06 01:31:44;;;;;;;17.40;16.10;;;18.50;99.90;;;;;;5060724;28;20451;-70
2021/08/06 01:34:11;;;;;;;16.50;15.50;;;18.50;99.90;;;;;;5058881;28;20949;-71
2021/08/06 01:36:38;;;;;;;17.93;16.67;;;18.50;99.90;;;;;;5057716;28;20523;-69
2021/08/06 01:39:06;;;;;;;17.07;15.90;;;18.50;99.90;;;;;;5056644;28;20911;-68
2021/08/06 01:41:39;;;;;;;16.97;15.93;;;18.50;99.90;;;;;;5057348;28;20456;-68
2021/08/06 01:44:13;;;;;;;17.50;16.30;;;18.50;99.90;;;;;;5049341;28;20791;-70
2021/08/06 01:46:46;;;;;;;17.33;16.33;;;18.40;99.90;;;;;;5055820;28;20458;-69
2021/08/06 01:49:17;;;;;;;17.07;15.77;;;18.40;99.90;;;;;;5063940;28;20473;-68
2021/08/06 01:51:48;;;;;;;18.07;16.80;;;18.30;99.90;;;;;;5060298;28;20464;-70
2021/08/06 01:54:17;;;;;;;17.50;16.23;;;18.30;99.90;;;;;;5058231;28;20505;-68
2021/08/06 01:56:45;;;;;;;16.43;15.63;;;18.30;99.90;;;;;;5057900;28;20470;-68
2021/08/06 01:59:15;;;;;;;17.30;16.40;;;18.30;99.90;;;;;;5053797;28;20452;-68
2021/08/06 02:01:43;;;;;;;16.80;15.90;;;18.40;99.90;;;;;;5059885;28;20458;-69
2021/08/06 02:04:11;;;;;;;17.60;16.30;;;18.40;99.90;;;;;;5048189;28;20958;-68
2021/08/06 02:06:38;;;;;;;21.70;20.20;;;18.50;99.90;;;;;;5055951;28;20455;-67
2021/08/06 02:09:05;;;;;;;23.70;22.00;;;18.30;99.90;;;;;;5054748;28;20583;-68
2021/08/06 02:11:32;;;;;;;24.83;21.90;;;18.00;99.90;;;;;;5055606;28;20459;-69
2021/08/06 02:13:59;;;;;;;22.97;21.00;;;17.80;99.90;;;;;;5050534;28;20466;-70
2021/08/06 02:16:27;;;;;;;22.77;21.00;;;17.50;99.90;;;;;;5061118;28;20482;-68
2021/08/06 02:18:56;;;;;;;24.40;22.40;;;17.20;99.90;;;;;;5055099;28;20471;-68
2021/08/06 02:21:26;;;;;;;22.70;21.20;;;17.00;99.90;;;;;;5056408;28;20459;-68
2021/08/06 02:23:57;;;;;;;23.70;22.00;;;17.00;99.90;;;;;;5058422;28;20463;-69
2021/08/06 02:26:26;;;;;;;23.93;21.70;;;16.90;99.90;;;;;;5057303;28;20959;-71
2021/08/06 02:28:53;;;;;;;23.67;21.83;;;16.90;99.90;;;;;;5056545;28;20810;-67
2021/08/06 02:31:21;;;;;;;23.57;21.87;;;16.90;99.90;;;;;;5059790;28;20494;-68
2021/08/06 02:33:49;;;;;;;23.40;21.80;;;16.90;99.90;;;;;;5057819;28;20463;-70
2021/08/06 02:36:16;;;;;;;24.13;22.60;;;16.90;99.90;;;;;;5058178;28;20451;-68
2021/08/06 02:38:43;;;;;;;23.40;21.60;;;16.90;99.90;;;;;;5056510;28;20467;-69
2021/08/06 02:41:10;;;;;;;22.90;21.40;;;16.90;99.90;;;;;;5052229;28;20466;-69
2021/08/06 02:43:40;;;;;;;24.03;22.17;;;16.80;99.90;;;;;;5050244;28;20455;-68
2021/08/06 02:46:07;;;;;;;24.57;22.57;;;16.80;99.90;;;;;;5053286;28;20458;-68
2021/08/06 02:48:34;;;;;;;23.47;21.40;;;16.80;99.90;;;;;;5053551;28;20521;-69
2021/08/06 02:51:03;;;;;;;23.47;21.60;;;16.90;99.90;;;;;;5055016;28;20490;-70
2021/08/06 02:53:29;;;;;;;22.60;21.00;;;16.90;99.90;;;;;;5056981;28;20463;-68
2021/08/06 02:55:56;;;;;;;21.77;20.10;;;16.90;99.90;;;;;;5058852;28;20463;-69
2021/08/06 02:58:23;;;;;;;22.50;21.00;;;16.90;99.90;;;;;;5051729;28;20822;-70
2021/08/06 03:00:50;;;;;;;23.43;21.33;;;16.90;99.90;;;;;;5060597;28;20451;-68
2021/08/06 03:03:17;;;;;;;22.03;20.40;;;16.90;99.90;;;;;;5055537;28;20482;-67
2021/08/06 03:05:44;;;;;;;22.97;21.07;;;17.00;99.90;;;;;;5056748;28;20539;-69
2021/08/06 03:08:12;;;;;;;21.20;19.80;;;17.00;99.90;;;;;;5059258;28;20466;-68
2021/08/06 03:10:39;;;;;;;22.67;20.93;;;17.00;99.90;;;;;;5055861;28;20479;-68
2021/08/06 03:13:07;;;;;;;22.77;20.97;;;17.00;99.90;;;;;;5059076;28;20555;-68
2021/08/06 03:15:34;;;;;;;21.83;20.33;;;17.00;99.90;;;;;;5054067;28;20530;-68
2021/08/06 03:18:01;;;;;;;24.23;22.13;;;17.00;99.90;;;;;;5054015;28;20470;-68
2021/08/06 03:20:28;;;;;;;24.27;22.37;;;17.00;99.90;;;;;;5054694;28;20451;-68
2021/08/06 03:22:56;;;;;;;25.97;22.20;;;17.00;99.90;;;;;;5052826;28;20460;-67
2021/08/06 03:25:24;;;;;;;24.17;21.97;;;17.00;99.90;;;;;;5054070;28;20467;-67
2021/08/06 03:27:51;;;;;;;23.77;21.53;;;17.00;99.90;;;;;;5056387;28;20467;-67
2021/08/06 03:30:18;;;;;;;24.37;22.37;;;17.10;99.90;;;;;;5058581;28;20493;-69
2021/08/06 03:32:45;;;;;;;24.50;21.97;;;17.10;99.90;;;;;;5054772;28;20447;-67
2021/08/06 03:35:14;;;;;;;24.30;22.30;;;17.10;99.90;;;;;;5054111;28;20486;-69
2021/08/06 03:37:42;;;;;;;25.23;23.20;;;17.10;99.90;;;;;;5057953;28;20459;-69
2021/08/06 03:40:11;;;;;;;23.57;21.67;;;17.10;99.90;;;;;;5054950;28;20992;-68
2021/08/06 03:42:40;;;;;;;22.87;21.00;;;17.10;99.90;;;;;;5054403;28;20460;-68
2021/08/06 03:45:08;;;;;;;21.80;20.27;;;17.10;99.90;;;;;;5057068;28;20456;-68
2021/08/06 03:47:36;;;;;;;22.07;20.10;;;17.10;99.90;;;;;;5056899;28;20472;-69
2021/08/06 03:50:06;;;;;;;21.30;19.80;;;17.00;99.90;;;;;;5051834;28;20533;-71
2021/08/06 03:52:33;;;;;;;22.37;20.80;;;17.00;99.90;;;;;;5060937;28;20467;-70
2021/08/06 03:55:01;;;;;;;21.40;19.80;;;17.00;99.90;;;;;;5048852;28;20530;-69
2021/08/06 03:57:28;;;;;;;21.90;20.43;;;17.00;99.90;;;;;;5052766;28;20961;-69
2021/08/06 03:59:56;;;;;;;22.17;20.33;;;17.00;99.90;;;;;;5058199;28;20451;-69
2021/08/06 04:02:23;;;;;;;23.03;20.83;;;17.00;99.90;;;;;;5057009;28;20456;-69
2021/08/06 04:04:51;;;;;;;22.77;20.67;;;17.00;99.90;;;;;;5059573;28;20459;-70
2021/08/06 04:07:17;;;;;;;22.30;20.60;;;17.00;99.90;;;;;;5054147;28;20455;-69
2021/08/06 04:09:44;;;;;;;22.60;20.77;;;17.00;99.90;;;;;;5057736;28;20843;-71
2021/08/06 04:12:12;;;;;;;22.47;20.50;;;17.10;99.90;;;;;;5059338;28;20904;-67
2021/08/06 04:14:39;;;;;;;22.10;20.20;;;17.10;99.90;;;;;;5060746;28;20473;-70
2021/08/06 04:17:07;;;;;;;23.07;20.97;;;17.10;99.90;;;;;;5060594;28;20483;-68
2021/08/06 04:19:34;;;;;;;21.90;20.30;;;17.10;99.90;;;;;;5051238;28;20455;-69
2021/08/06 04:22:01;;;;;;;23.57;21.53;;;17.10;99.90;;;;;;5057598;28;20458;-68
2021/08/06 04:24:28;;;;;;;22.03;20.10;;;17.10;99.90;;;;;;5058220;28;20474;-70
2021/08/06 04:26:56;;;;;;;21.53;19.80;;;17.10;99.90;;;;;;5057192;28;20574;-69
2021/08/06 04:29:23;;;;;;;22.30;20.40;;;17.00;99.90;;;;;;5061763;28;20455;-71
2021/08/06 04:31:50;;;;;;;21.83;20.33;;;17.00;99.90;;;;;;5061514;28;20503;-70
2021/08/06 04:34:19;;;;;;;22.37;20.47;;;17.00;99.90;;;;;;5059335;28;20467;-71
2021/08/06 04:36:45;;;;;;;22.20;20.47;;;17.00;99.90;;;;;;5050966;28;20451;-68
2021/08/06 04:39:13;;;;;;;22.30;20.57;;;17.10;99.90;;;;;;5057769;28;20459;-68
2021/08/06 04:41:39;;;;;;;21.50;19.93;;;17.10;99.90;;;;;;5060416;28;20967;-70
2021/08/06 04:44:08;;;;;;;22.30;20.53;;;17.10;99.90;;;;;;5053865;28;20467;-70
2021/08/06 04:46:34;;;;;;;22.07;20.37;;;17.10;99.90;;;;;;5054663;28;22222;-68
2021/08/06 04:49:02;;;;;;;22.10;20.30;;;17.10;99.90;;;;;;5064167;28;20455;-69
2021/08/06 04:51:30;;;;;;;22.00;20.27;;;17.20;99.90;;;;;;5056178;28;20475;-70
2021/08/06 04:53:57;;;;;;;23.03;20.80;;;17.20;99.90;;;;;;5060806;28;20934;-69
2021/08/06 04:56:23;;;;;;;22.03;20.20;;;17.30;99.90;;;;;;5055921;28;20455;-68
2021/08/06 04:58:51;;;;;;;22.13;20.27;;;17.20;99.90;;;;;;5055802;28;20463;-69
2021/08/06 05:01:19;;;;;;;21.90;20.40;;;17.20;99.90;;;;;;5061029;28;20455;-69
2021/08/06 05:03:46;;;;;;;22.90;21.10;;;17.20;99.90;;;;;;5054961;28;21047;-68
2021/08/06 05:06:13;;;;;;;21.53;20.13;;;17.20;99.90;;;;;;5058450;28;20454;-68
2021/08/06 05:08:49;;;;;;;22.37;20.23;;;17.30;99.90;;;;;;5054250;28;20840;-68
2021/08/06 05:11:15;;;;;;;21.90;20.37;;;17.30;99.90;;;;;;5057476;28;20496;-71
2021/08/06 05:13:42;;;;;;;24.53;22.20;;;17.30;99.90;;;;;;5055297;28;20463;-68
2021/08/06 05:16:09;;;;;;;23.40;20.97;;;17.40;99.90;;;;;;5057047;28;20475;-68
2021/08/06 05:18:37;;;;;;;22.57;20.97;;;17.40;99.90;;;;;;5056634;28;20554;-68
2021/08/06 05:21:06;;;;;;;22.67;20.60;;;17.40;99.90;;;;;;5060592;28;20961;-69
2021/08/06 05:23:33;;;;;;;22.27;20.20;;;17.40;99.90;;;;;;5054583;28;20949;-68
2021/08/06 05:26:02;;;;;;;22.87;20.73;;;17.40;99.90;;;;;;5056858;28;20836;-70
2021/08/06 05:28:29;;;;;;;22.63;20.60;;;17.40;99.90;;;;;;5053417;28;20456;-69
2021/08/06 05:30:56;;;;;;;23.00;21.10;;;17.40;99.90;;;;;;5059414;28;20476;-68
2021/08/06 05:33:23;;;;;;;22.97;20.90;;;17.40;99.90;;;;;;5060588;28;20459;-70
2021/08/06 05:35:50;;;;;;;21.90;20.40;;;17.40;99.90;;;;;;5056852;28;20462;-70
2021/08/06 05:38:17;;;;;;;24.57;22.40;;;17.50;99.90;;;;;;5056289;28;20887;-69
2021/08/06 05:40:44;;;;;;;23.17;21.53;;;17.50;99.90;;;;;;5057814;28;20443;-70
2021/08/06 05:43:13;;;;;;;21.70;20.00;;;17.60;99.90;;;;;;5057467;28;20460;-69
2021/08/06 05:45:39;;;;;;;21.50;20.00;;;17.70;99.90;;;;;;5057557;28;20483;-68
2021/08/06 05:48:07;;;;;;;21.03;19.40;;;17.80;99.90;;;;;;5058172;28;20520;-70
2021/08/06 05:50:39;;;;;;;19.43;18.13;;;17.80;99.90;;;;;;5055992;28;20474;-69
2021/08/06 05:53:06;;;;;;;19.23;18.03;;;17.90;99.90;;;;;;5056115;28;20455;-70
2021/08/06 05:55:33;;;;;;;19.70;18.50;;;17.80;99.90;;;;;;5062835;28;20494;-69
2021/08/06 05:58:00;;;;;;;20.40;19.10;;;17.90;99.90;;;;;;5054474;28;20467;-70
2021/08/06 06:00:29;;;;;;;20.37;19.10;;;17.80;99.90;;;;;;5056012;28;20461;-68
2021/08/06 06:02:56;;;;;;;19.63;18.33;;;17.90;99.90;;;;;;5058979;28;20459;-68
2021/08/06 06:05:23;;;;;;;19.67;18.10;;;17.90;99.90;;;;;;5059805;28;20819;-71
2021/08/06 06:07:51;;;;;;;19.20;17.80;;;17.90;99.90;;;;;;5055317;28;20471;-68
2021/08/06 06:10:20;;;;;;;18.43;17.00;;;17.90;99.90;;;;;;5054060;28;20845;-69
2021/08/06 06:12:47;;;;;;;18.73;17.53;;;17.90;99.90;;;;;;5060816;28;20470;-69
2021/08/06 06:15:14;;;;;;;18.43;16.77;;;17.90;99.90;;;;;;5061688;28;20461;-68
2021/08/06 06:17:42;;;;;;;18.57;17.37;;;17.90;99.90;;;;;;5054757;28;20800;-68
2021/08/06 06:20:10;;;;;;;19.07;17.70;;;17.90;99.90;;;;;;5054717;28;20497;-70
2021/08/06 06:22:37;;;;;;;18.00;16.90;;;17.90;99.90;;;;;;5054256;28;20833;-70
2021/08/06 06:25:05;;;;;;;17.43;16.30;;;18.20;99.90;;;;;;5050100;28;20555;-68
2021/08/06 06:27:32;;;;;;;17.93;16.83;;;18.40;99.90;;;;;;5056617;28;20460;-68
2021/08/06 06:29:59;;;;;;;17.30;16.40;;;18.50;99.90;;;;;;5054098;28;20465;-68
2021/08/06 06:32:26;;;;;;;17.23;16.27;;;18.60;99.90;;;;;;5049639;28;20486;-68
2021/08/06 06:34:54;;;;;;;17.17;15.70;;;18.60;99.90;;;;;;5052825;28;20454;-68
2021/08/06 06:37:21;;;;;;;16.10;15.10;;;18.70;99.90;;;;;;5052065;28;20462;-69
2021/08/06 06:39:50;;;;;;;15.23;14.53;;;18.70;99.90;;;;;;5053053;28;20448;-69
2021/08/06 06:42:17;;;;;;;15.87;14.67;;;18.70;99.90;;;;;;5056351;28;20926;-68
2021/08/06 06:44:43;;;;;;;15.00;14.00;;;18.60;99.90;;;;;;5059444;28;20459;-68
2021/08/06 06:47:11;;;;;;;14.97;14.17;;;18.60;99.90;;;;;;5056519;28;20494;-68
2021/08/06 06:49:39;;;;;;;14.40;13.70;;;18.50;99.90;;;;;;5051373;28;22251;-68
2021/08/06 06:52:08;;;;;;;14.70;14.00;;;18.60;99.90;;;;;;5052895;28;20479;-69
2021/08/06 06:54:35;;;;;;;15.20;14.30;;;18.60;99.90;;;;;;5062485;28;20454;-68
2021/08/06 06:57:02;;;;;;;14.10;13.40;;;18.60;99.90;;;;;;5057068;28;20486;-70
2021/08/06 06:59:30;;;;;;;14.63;13.83;;;18.60;99.90;;;;;;5055357;28;20494;-68
2021/08/06 07:01:58;;;;;;;14.63;13.83;;;18.80;99.90;;;;;;5059498;28;20564;-68
2021/08/06 07:04:26;;;;;;;14.60;13.70;;;18.90;99.90;;;;;;5056508;28;20479;-68
2021/08/06 07:06:53;;;;;;;14.67;13.80;;;19.30;99.90;;;;;;5055476;28;21073;-71
2021/08/06 07:09:21;;;;;;;14.70;14.00;;;19.50;99.90;;;;;;5055243;28;20460;-69
2021/08/06 07:11:47;;;;;;;14.67;13.90;;;19.60;99.90;;;;;;5055418;28;20491;-70
2021/08/06 07:14:14;;;;;;;14.83;14.10;;;19.80;99.90;;;;;;5058414;28;20470;-69
2021/08/06 07:16:41;;;;;;;16.87;15.83;;;19.70;99.90;;;;;;5057475;28;20516;-66
2021/08/06 07:19:08;;;;;;;29.77;18.80;;;19.30;99.90;;;;;;5055682;28;20452;-69
2021/08/06 07:21:35;;;;;;;18.33;17.23;;;18.80;99.90;;;;;;5058394;28;20459;-69
2021/08/06 07:24:02;;;;;;;18.80;17.43;;;18.20;99.90;;;;;;5051323;28;20456;-69
2021/08/06 07:26:31;;;;;;;16.90;16.00;;;17.80;99.90;;;;;;5048700;28;20471;-68
2021/08/06 07:28:58;;;;;;;16.40;15.20;;;17.60;99.90;;;;;;5047537;28;20958;-68
2021/08/06 07:31:26;;;;;;;16.63;15.63;;;17.60;99.90;;;;;;5049534;28;20490;-68
2021/08/06 07:33:52;;;;;;;18.00;17.00;;;17.60;99.90;;;;;;5052073;28;20471;-68
2021/08/06 07:36:19;;;;;;;16.60;15.70;;;17.70;99.90;;;;;;5047592;28;20877;-68
2021/08/06 07:38:46;;;;;;;17.20;16.20;;;17.60;99.90;;;;;;5050334;28;20981;-69
2021/08/06 07:41:14;;;;;;;17.77;16.43;;;17.60;99.90;;;;;;5047980;28;21029;-68
2021/08/06 07:43:43;;;;;;;14.83;14.20;;;17.40;99.90;;;;;;5050623;28;20460;-68
2021/08/06 07:46:10;;;;;;;17.20;16.20;;;17.20;99.90;;;;;;5046482;28;20826;-68
2021/08/06 07:48:36;;;;;;;16.50;15.60;;;17.10;99.90;;;;;;5049163;28;20490;-69
2021/08/06 07:51:03;;;;;;;16.53;15.43;;;17.10;99.90;;;;;;5049127;28;20530;-69
2021/08/06 07:53:31;;;;;;;17.43;15.63;;;17.10;99.90;;;;;;5048807;28;20956;-67
2021/08/06 07:55:58;;;;;;;16.07;14.87;;;17.10;99.90;;;;;;5049184;28;20460;-68
2021/08/06 07:58:25;;;;;;;15.13;14.27;;;17.10;99.90;;;;;;5045279;28;20467;-69
2021/08/06 08:00:53;;;;;;;15.27;14.27;;;17.30;99.90;;;;;;5049745;28;20456;-68
2021/08/06 08:03:20;;;;;;;15.27;14.17;;;17.40;99.90;;;;;;5050966;28;20467;-70
2021/08/06 08:05:47;;;;;;;15.20;14.40;;;17.40;99.90;;;;;;5044585;28;20456;-67
2021/08/06 08:08:13;;;;;;;15.67;14.67;;;17.30;99.90;;;;;;5049861;28;20478;-67
2021/08/06 08:10:40;;;;;;;16.37;15.43;;;17.30;99.90;;;;;;5050220;28;20458;-67
2021/08/06 08:13:07;;;;;;;16.83;15.83;;;17.30;99.90;;;;;;5049525;28;20471;-68
2021/08/06 08:15:34;;;;;;;16.80;15.90;;;17.20;99.90;;;;;;5049284;28;20484;-68
2021/08/06 08:18:02;;;;;;;15.10;14.30;;;17.10;99.90;;;;;;5049821;28;20459;-69
2021/08/06 08:20:29;;;;;;;14.87;14.07;;;17.30;99.90;;;;;;5043620;28;20451;-70
2021/08/06 08:22:56;;;;;;;13.70;13.10;;;17.40;99.90;;;;;;5048249;28;20838;-70
2021/08/06 08:25:23;;;;;;;13.43;12.93;;;17.40;99.90;;;;;;5050590;28;20470;-69
2021/08/06 08:27:50;;;;;;;12.57;12.07;;;17.60;99.90;;;;;;5052366;28;20463;-68
2021/08/06 08:30:17;;;;;;;13.30;12.80;;;17.60;99.90;;;;;;5050905;28;21069;-68
2021/08/06 08:32:44;;;;;;;13.77;13.17;;;17.60;99.90;;;;;;5044569;28;20511;-68
2021/08/06 08:35:13;;;;;;;13.80;13.20;;;17.60;99.90;;;;;;5050032;28;20456;-70
2021/08/06 08:37:39;;;;;;;13.07;12.57;;;17.70;99.90;;;;;;5056907;28;20459;-67
2021/08/06 08:40:08;;;;;;;12.57;12.07;;;17.90;99.90;;;;;;5052495;28;20467;-68
2021/08/06 08:42:35;;;;;;;11.90;11.40;;;17.80;99.90;;;;;;5050488;28;20462;-67
2021/08/06 08:45:03;;;;;;;12.40;11.90;;;18.20;99.90;;;;;;5052095;28;20462;-67
2021/08/06 08:47:35;;;;;;;12.03;11.53;;;18.30;99.90;;;;;;5043626;28;20484;-70
2021/08/06 08:50:04;;;;;;;11.10;10.70;;;18.50;99.90;;;;;;5052291;28;20494;-69
2021/08/06 08:52:34;;;;;;;9.73;9.40;;;18.80;99.90;;;;;;5048729;28;20495;-67
2021/08/06 08:55:01;;;;;;;10.07;9.67;;;19.30;99.90;;;;;;5053473;28;20816;-69
2021/08/06 08:57:29;;;;;;;9.53;9.23;;;19.90;99.90;;;;;;5051759;28;20958;-67
2021/08/06 08:59:56;;;;;;;10.30;9.90;;;20.40;99.90;;;;;;5058089;28;20455;-68
2021/08/06 09:02:24;;;;;;;10.20;9.80;;;20.50;99.90;;;;;;5052261;28;20446;-69
2021/08/06 09:05:08;;;;;;;11.37;10.97;;;20.80;99.90;;;;;;5054854;28;20463;-68
2021/08/06 09:07:36;;;;;;;10.20;9.80;;;21.00;99.90;;;;;;5048939;28;20957;-68
2021/08/06 09:10:08;;;;;;;11.20;10.80;;;21.40;99.90;;;;;;5054474;28;20937;-67
2021/08/06 09:12:47;;;;;;;12.60;12.10;;;21.70;99.90;;;;;;5054880;28;20480;-70
2021/08/06 09:15:14;;;;;;;16.00;15.10;;;21.40;99.90;;;;;;5053367;28;20456;-68
2021/08/06 09:17:41;;;;;;;16.23;15.17;;;21.30;99.90;;;;;;5056697;28;20486;-70
2021/08/06 09:20:10;;;;;;;14.30;13.53;;;21.20;99.90;;;;;;5053999;28;20573;-67
2021/08/06 09:22:40;;;;;;;15.93;14.70;;;21.70;99.90;;;;;;5055558;28;20958;-68
2021/08/06 09:25:11;;;;;;;15.20;14.30;;;22.00;99.90;;;;;;5052490;28;20459;-70
2021/08/06 09:27:40;;;;;;;16.60;15.40;;;22.20;99.90;;;;;;5054268;28;20512;-70
2021/08/06 09:30:11;;;;;;;16.80;15.40;;;22.20;99.90;;;;;;5050857;28;20474;-69
2021/08/06 09:32:53;;;;;;;15.90;14.93;;;21.90;99.90;;;;;;5054179;28;20885;-68
2021/08/06 09:35:22;;;;;;;16.30;15.33;;;22.70;99.90;;;;;;5050122;28;20992;-69
2021/08/06 09:37:51;;;;;;;16.83;15.63;;;23.00;99.90;;;;;;5055276;28;20456;-70
2021/08/06 09:40:20;;;;;;;16.70;15.30;;;23.50;99.90;;;;;;5048774;28;20480;-68
2021/08/06 09:42:54;;;;;;;17.00;16.20;;;23.30;99.90;;;;;;5053368;28;20471;-70
2021/08/06 09:45:22;;;;;;;17.27;16.07;;;23.10;99.90;;;;;;5051819;28;20834;-70
2021/08/06 09:47:55;;;;;;;17.40;15.90;;;22.40;99.90;;;;;;5051254;28;20526;-67
2021/08/06 09:50:24;;;;;;;17.60;16.00;;;22.00;99.90;;;;;;5045666;28;21197;-70
2021/08/06 09:52:53;;;;;;;15.80;14.77;;;22.00;99.90;;;;;;5056196;28;20492;-71
2021/08/06 09:55:24;;;;;;;16.23;15.23;;;22.00;99.90;;;;;;5052282;28;20475;-68
2021/08/06 09:57:52;;;;;;;15.90;14.90;;;21.90;99.90;;;;;;5052739;28;20891;-68
2021/08/06 10:00:21;;;;;;;16.80;15.50;;;22.00;99.90;;;;;;5051219;28;20453;-68
2021/08/06 10:02:48;;;;;;;16.20;15.10;;;21.70;99.90;;;;;;5047410;28;20460;-69
2021/08/06 10:05:17;;;;;;;15.30;14.23;;;21.50;99.90;;;;;;5047437;28;20571;-67
2021/08/06 10:07:46;;;;;;;15.50;14.53;;;21.00;99.90;;;;;;5050570;28;20965;-68
2021/08/06 10:10:16;;;;;;;64.93;22.40;;;20.40;99.90;;;;;;5045924;28;20452;-68
2021/08/06 10:12:44;;;;;;;24.40;22.40;;;19.60;99.90;;;;;;5054062;28;20921;-68
2021/08/06 10:15:11;;;;;;;22.70;20.43;;;18.50;99.90;;;;;;5050772;28;20696;-67
2021/08/06 10:17:38;;;;;;;19.90;18.57;;;18.10;99.90;;;;;;5048650;28;20494;-69
2021/08/06 10:20:07;;;;;;;19.47;18.00;;;17.90;99.90;;;;;;5050086;28;20463;-69
2021/08/06 10:22:34;;;;;;;18.37;17.17;;;17.70;99.90;;;;;;5052409;28;20454;-68
2021/08/06 10:25:05;;;;;;;17.57;16.37;;;17.90;99.90;;;;;;5045396;28;20819;-69
2021/08/06 10:27:35;;;;;;;17.77;16.57;;;18.00;99.90;;;;;;5056254;28;20455;-71
2021/08/06 10:30:07;;;;;;;18.13;16.80;;;18.20;99.90;;;;;;5049791;28;20463;-70
2021/08/06 10:32:35;;;;;;;16.30;15.10;;;18.10;99.90;;;;;;5051085;28;20478;-70
2021/08/06 10:35:18;;;;;;;15.80;14.47;;;18.40;99.90;;;;;;5050745;28;20899;-68
2021/08/06 10:38:05;;;;;;;15.27;14.17;;;18.60;99.90;;;;;;5057192;28;20448;-68
2021/08/06 10:41:20;;;;;;;13.67;12.67;;;18.90;99.90;;;;;;5046544;28;20455;-68
2021/08/06 10:44:00;;;;;;;13.47;12.37;;;19.30;99.90;;;;;;5052071;28;20460;-68
2021/08/06 10:46:27;;;;;;;14.27;13.27;;;19.90;99.90;;;;;;5046778;28;21165;-70
2021/08/06 10:48:55;;;;;;;14.40;13.60;;;20.30;99.90;;;;;;5051572;28;20510;-71
2021/08/06 10:51:31;;;;;;;14.20;13.40;;;20.50;99.90;;;;;;5047891;28;21036;-69
2021/08/06 10:54:37;;;;;;;15.07;14.20;;;20.80;99.90;;;;;;5045255;28;20780;-68
2021/08/06 10:57:37;;;;;;;15.80;14.90;;;20.90;99.90;;;;;;5048801;28;20454;-70
2021/08/06 11:00:06;;;;;;;15.93;15.03;;;21.30;99.90;;;;;;5050554;28;20823;-69
2021/08/06 11:02:48;;;;;;;15.67;14.87;;;22.10;99.90;;;;;;5049891;28;20509;-68
2021/08/06 11:05:40;;;;;;;17.17;16.17;;;22.50;99.90;;;;;;5045214;28;20508;-69
2021/08/06 11:08:46;;;;;;;18.20;16.93;;;22.60;99.90;;;;;;5043411;28;20836;-68
2021/08/06 11:11:45;;;;;;;17.87;16.87;;;22.50;99.90;;;;;;5051542;28;20466;-68
2021/08/06 11:14:13;;;;;;;17.77;16.33;;;22.70;99.90;;;;;;5047194;28;20460;-71
2021/08/06 11:17:07;;;;;;;16.80;15.90;;;22.70;99.90;;;;;;5050300;28;20479;-68
2021/08/06 11:19:35;;;;;;;16.90;15.77;;;22.90;99.90;;;;;;5034207;28;21291;-69
2021/08/06 11:22:05;;;;;;;15.53;14.63;;;23.20;99.90;;;;;;5056010;28;20482;-68
2021/08/06 11:24:40;;;;;;;16.17;15.27;;;23.80;99.90;;;;;;5047557;28;20580;-71
2021/08/06 11:27:08;;;;;;;17.63;16.43;;;23.80;99.90;;;;;;5042447;28;20466;-68
2021/08/06 11:29:36;;;;;;;15.10;14.20;;;24.20;99.90;;;;;;5049542;28;20483;-68
2021/08/06 11:32:07;;;;;;;15.07;14.30;;;25.00;99.90;;;;;;5049597;28;20564;-68
2021/08/06 11:34:54;;;;;;;15.40;14.40;;;25.00;99.90;;;;;;5044468;28;20459;-69
2021/08/06 11:37:22;;;;;;;15.00;14.30;;;25.30;99.90;;;;;;5045004;28;20455;-68
2021/08/06 11:40:08;;;;;;;14.60;13.80;;;25.60;99.90;;;;;;5048044;28;20463;-70
2021/08/06 11:42:35;;;;;;;15.00;13.87;;;25.70;99.90;;;;;;5050356;28;20456;-69
2021/08/06 11:45:03;;;;;;;15.73;14.87;;;25.90;99.90;;;;;;5043805;28;20542;-69
2021/08/06 11:47:42;;;;;;;17.43;16.27;;;26.00;99.90;;;;;;5050278;28;20480;-68
2021/08/06 11:50:13;;;;;;;15.67;14.73;;;25.70;99.90;;;;;;5047501;28;20455;-69
2021/08/06 11:52:43;;;;;;;14.97;14.17;;;26.30;99.90;;;;;;5048880;28;20955;-69
2021/08/06 11:55:12;;;;;;;16.17;15.07;;;26.30;99.90;;;;;;5054899;28;20469;-68
2021/08/06 11:57:55;;;;;;;14.90;14.10;;;25.90;99.90;;;;;;5051365;28;20819;-70
2021/08/06 12:00:27;;;;;;;14.70;14.00;;;25.90;99.90;;;;;;5054072;28;20478;-71
2021/08/06 12:03:02;;;;;;;14.60;13.80;;;25.80;99.90;;;;;;5049268;28;20471;-70
2021/08/06 12:05:30;;;;;;;14.60;13.90;;;25.50;99.90;;;;;;5048909;28;20455;-70
2021/08/06 12:07:57;;;;;;;15.40;14.60;;;25.00;99.90;;;;;;5049347;28;20621;-68
2021/08/06 12:10:28;;;;;;;14.70;13.77;;;24.40;99.90;;;;;;5053098;28;20865;-68
2021/08/06 12:12:56;;;;;;;14.50;13.70;;;23.50;99.90;;;;;;5043908;28;20491;-68
2021/08/06 12:15:24;;;;;;;14.50;13.80;;;23.90;99.90;;;;;;5050897;28;20471;-68
2021/08/06 12:18:11;;;;;;;15.00;14.30;;;24.30;99.90;;;;;;5044764;28;20864;-69
2021/08/06 12:20:39;;;;;;;15.37;14.17;;;24.50;99.90;;;;;;5051941;28;20971;-68
2021/08/06 12:23:06;;;;;;;14.50;13.80;;;24.70;99.90;;;;;;5042832;28;20463;-70
2021/08/06 12:25:33;;;;;;;14.87;14.27;;;25.20;99.90;;;;;;5051847;28;20462;-68
2021/08/06 12:28:01;;;;;;;15.50;14.60;;;25.10;99.90;;;;;;5051330;28;21274;-70
2021/08/06 12:30:30;;;;;;;15.23;14.40;;;24.60;99.90;;;;;;5054137;28;20459;-69
2021/08/06 12:32:59;;;;;;;14.63;13.60;;;24.20;99.90;;;;;;5052305;28;20482;-68
2021/08/06 12:35:27;;;;;;;15.00;14.17;;;24.80;99.90;;;;;;5053044;28;20505;-69
2021/08/06 12:37:54;;;;;;;14.10;13.47;;;25.70;99.90;;;;;;5052141;28;20463;-69
2021/08/06 12:40:22;;;;;;;15.73;14.67;;;24.90;99.90;;;;;;5052935;28;20459;-69